createdAt,value
2023-05-14T00:01:37.262Z,15.19
2023-05-14T00:03:42.398Z,15.21
2023-05-14T00:05:47.392Z,15.22
2023-05-14T00:07:54.768Z,15.21
2023-05-14T00:09:59.614Z,15.22
2023-05-14T00:12:04.401Z,15.21
2023-05-14T00:14:09.496Z,15.22
2023-05-14T00:16:14.812Z,15.22
2023-05-14T00:18:19.720Z,15.23
2023-05-14T00:20:24.727Z,15.23
2023-05-14T00:22:30.075Z,15.22
2023-05-14T00:24:40.202Z,15.22
2023-05-14T00:26:44.990Z,15.22
2023-05-14T00:28:49.764Z,15.21
2023-05-14T00:30:54.842Z,15.23
2023-05-14T00:32:59.728Z,15.22
2023-05-14T00:35:05.149Z,15.23
2023-05-14T00:37:09.976Z,15.23
2023-05-14T00:39:15.663Z,15.23
2023-05-14T00:41:23.168Z,15.22
2023-05-14T00:43:28.092Z,15.23
2023-05-14T00:45:32.852Z,15.22
2023-05-14T00:47:39.586Z,15.23
2023-05-14T00:49:45.203Z,15.23
2023-05-14T00:51:50.221Z,15.23
2023-05-14T00:53:56.190Z,15.24
2023-05-14T00:56:02.019Z,15.25
2023-05-14T00:58:13.244Z,15.25
2023-05-14T01:00:19.747Z,15.26
2023-05-14T01:02:24.884Z,15.25
2023-05-14T01:04:30.197Z,15.26
2023-05-14T01:06:43.807Z,15.25
2023-05-14T01:08:56.546Z,15.23
2023-05-14T01:11:08.362Z,15.23
2023-05-14T01:13:21.259Z,15.22
2023-05-14T01:15:31.208Z,15.21
2023-05-14T01:17:41.368Z,15.21
2023-05-14T01:19:47.589Z,15.21
2023-05-14T01:21:55.200Z,15.21
2023-05-14T01:24:00.218Z,15.21
2023-05-14T01:26:05.376Z,15.22
2023-05-14T01:28:17.648Z,15.21
2023-05-14T01:30:29.897Z,15.19
2023-05-14T01:32:36.731Z,15.23
2023-05-14T01:34:43.358Z,15.21
2023-05-14T01:36:48.636Z,15.21
2023-05-14T01:38:57.560Z,15.21
2023-05-14T01:41:04.202Z,15.22
2023-05-14T01:43:09.369Z,15.21
2023-05-14T01:45:14.909Z,15.22
2023-05-14T01:47:20.085Z,15.23
2023-05-14T01:49:24.884Z,15.21
2023-05-14T01:51:29.768Z,15.24
2023-05-14T01:53:35.117Z,15.24
2023-05-14T01:55:42.708Z,15.24
2023-05-14T01:57:47.952Z,15.26
2023-05-14T01:59:52.954Z,15.27
2023-05-14T02:01:57.871Z,15.27
2023-05-14T02:04:03.025Z,15.28
2023-05-14T02:06:08.045Z,15.28
2023-05-14T02:08:13.096Z,15.28
2023-05-14T02:10:18.026Z,15.27
2023-05-14T02:12:30.411Z,15.26
2023-05-14T02:14:35.157Z,15.26
2023-05-14T02:16:39.957Z,15.25
2023-05-14T02:18:44.838Z,15.24
2023-05-14T02:20:49.808Z,15.24
2023-05-14T02:22:55.349Z,15.24
2023-05-14T02:25:00.251Z,15.23
2023-05-14T02:27:05.238Z,15.23
2023-05-14T02:29:12.744Z,15.21
2023-05-14T02:31:19.256Z,15.20
2023-05-14T02:33:24.175Z,15.21
2023-05-14T02:35:29.791Z,15.21
2023-05-14T02:37:34.909Z,15.19
2023-05-14T02:39:39.663Z,15.21
2023-05-14T02:41:44.655Z,15.22
2023-05-14T02:43:49.460Z,15.21
2023-05-14T02:45:57.062Z,15.21
2023-05-14T02:48:02.049Z,15.20
2023-05-14T02:50:07.967Z,15.21
2023-05-14T02:52:12.855Z,15.20
2023-05-14T02:54:18.913Z,15.19
2023-05-14T02:56:24.067Z,15.18
2023-05-14T02:58:29.154Z,15.18
2023-05-14T03:00:34.203Z,15.16
2023-05-14T03:02:43.791Z,15.17
2023-05-14T03:04:49.964Z,15.18
2023-05-14T03:06:54.793Z,15.18
2023-05-14T03:08:59.856Z,15.18
2023-05-14T03:11:04.864Z,15.20
2023-05-14T03:13:09.982Z,15.19
2023-05-14T03:15:15.191Z,15.21
2023-05-14T03:17:19.981Z,15.21
2023-05-14T03:19:27.451Z,15.19
2023-05-14T03:21:32.342Z,15.21
2023-05-14T03:23:37.575Z,15.21
2023-05-14T03:25:42.417Z,15.22
2023-05-14T03:27:47.402Z,15.22
2023-05-14T03:29:52.173Z,15.23
2023-05-14T03:31:57.842Z,15.23
2023-05-14T03:34:02.826Z,15.22
2023-05-14T03:36:10.849Z,15.22
2023-05-14T03:38:15.844Z,15.21
2023-05-14T03:40:21.845Z,15.22
2023-05-14T03:42:27.379Z,15.22
2023-05-14T03:44:32.223Z,15.22
2023-05-14T03:46:37.269Z,15.22
2023-05-14T03:48:42.835Z,15.20
2023-05-14T03:50:48.013Z,15.19
2023-05-14T03:52:55.730Z,15.18
2023-05-14T03:55:00.909Z,15.19
2023-05-14T03:57:05.875Z,15.17
2023-05-14T03:59:10.662Z,15.17
2023-05-14T04:01:16.771Z,15.16
2023-05-14T04:03:21.755Z,15.15
2023-05-14T04:05:27.227Z,15.14
2023-05-14T04:07:32.082Z,15.14
2023-05-14T04:09:39.874Z,15.11
2023-05-14T04:11:44.706Z,15.10
2023-05-14T04:13:49.770Z,15.10
2023-05-14T04:15:54.838Z,15.07
2023-05-14T04:17:59.885Z,15.07
2023-05-14T04:20:05.796Z,15.06
2023-05-14T04:22:11.818Z,15.05
2023-05-14T04:24:16.805Z,15.04
2023-05-14T04:26:24.345Z,15.03
2023-05-14T04:28:29.293Z,15.03
2023-05-14T04:30:34.295Z,15.02
2023-05-14T04:32:39.658Z,15.03
2023-05-14T04:34:44.566Z,15.04
2023-05-14T04:36:49.344Z,15.05
2023-05-14T04:38:54.406Z,15.04
2023-05-14T04:40:59.347Z,15.04
2023-05-14T04:43:06.874Z,15.04
2023-05-14T04:45:12.988Z,15.04
2023-05-14T04:47:18.079Z,15.04
2023-05-14T04:49:23.232Z,15.04
2023-05-14T04:51:28.424Z,15.01
2023-05-14T04:53:33.309Z,15.01
2023-05-14T04:55:38.345Z,15.03
2023-05-14T04:57:43.397Z,15.01
2023-05-14T04:59:51.084Z,15.01
2023-05-14T05:01:55.864Z,15.01
2023-05-14T05:04:00.814Z,15.01
2023-05-14T05:06:05.690Z,15.01
2023-05-14T05:08:11.589Z,14.98
2023-05-14T05:10:16.568Z,14.98
2023-05-14T05:12:21.656Z,14.97
2023-05-14T05:14:26.695Z,14.97
2023-05-14T05:16:34.414Z,14.97
2023-05-14T05:18:39.625Z,14.97
2023-05-14T05:20:44.524Z,14.97
2023-05-14T05:22:49.295Z,14.97
2023-05-14T05:24:54.371Z,14.98
2023-05-14T05:26:59.429Z,14.98
2023-05-14T05:29:04.220Z,14.97
2023-05-14T05:31:09.117Z,14.98
2023-05-14T05:33:17.076Z,14.97
2023-05-14T05:35:21.934Z,14.97
2023-05-14T05:37:26.815Z,14.98
2023-05-14T05:39:35.223Z,14.97
2023-05-14T05:41:40.892Z,14.98
2023-05-14T05:43:45.722Z,14.98
2023-05-14T05:45:50.851Z,15.00
2023-05-14T05:47:55.634Z,14.98
2023-05-14T05:50:03.144Z,14.98
2023-05-14T05:52:08.609Z,15.01
2023-05-14T05:54:13.355Z,15.01
2023-05-14T05:56:18.178Z,15.03
2023-05-14T05:58:23.136Z,15.04
2023-05-14T06:00:27.907Z,15.05
2023-05-14T06:02:32.852Z,15.07
2023-05-14T06:04:37.756Z,15.07
2023-05-14T06:06:45.496Z,15.08
2023-05-14T06:08:50.367Z,15.09
2023-05-14T06:10:55.224Z,15.08
2023-05-14T06:13:00.350Z,15.06
2023-05-14T06:15:05.196Z,15.05
2023-05-14T06:17:10.456Z,15.04
2023-05-14T06:19:15.531Z,15.05
2023-05-14T06:21:20.400Z,15.08
2023-05-14T06:23:28.040Z,15.09
2023-05-14T06:25:32.831Z,15.09
2023-05-14T06:27:37.685Z,15.10
2023-05-14T06:29:42.481Z,15.11
2023-05-14T06:31:47.599Z,15.13
2023-05-14T06:33:52.647Z,15.13
2023-05-14T06:35:57.432Z,15.15
2023-05-14T06:38:02.568Z,15.17
2023-05-14T06:40:11.641Z,15.17
2023-05-14T06:42:16.360Z,15.18
2023-05-14T06:44:22.696Z,15.20
2023-05-14T06:46:27.567Z,15.23
2023-05-14T06:48:32.541Z,15.25
2023-05-14T06:50:37.501Z,15.28
2023-05-14T06:52:43.762Z,15.30
2023-05-14T06:54:48.502Z,15.31
2023-05-14T06:56:56.252Z,15.32
2023-05-14T06:59:01.207Z,15.34
2023-05-14T07:01:06.684Z,15.35
2023-05-14T07:03:11.724Z,15.36
2023-05-14T07:05:16.817Z,15.36
2023-05-14T07:07:21.831Z,15.38
2023-05-14T07:09:26.834Z,15.39
2023-05-14T07:11:31.673Z,15.40
2023-05-14T07:13:39.269Z,15.41
2023-05-14T07:15:44.060Z,15.43
2023-05-14T07:17:49.112Z,15.45
2023-05-14T07:19:55.685Z,15.47
2023-05-14T07:22:01.546Z,15.51
2023-05-14T07:24:07.120Z,15.54
2023-05-14T07:26:11.963Z,15.57
2023-05-14T07:28:16.784Z,15.61
2023-05-14T07:30:24.842Z,15.63
2023-05-14T07:32:29.890Z,15.67
2023-05-14T07:34:34.776Z,15.68
2023-05-14T07:36:39.696Z,15.72
2023-05-14T07:38:44.736Z,15.72
2023-05-14T07:40:49.553Z,15.75
2023-05-14T07:42:54.695Z,15.75
2023-05-14T07:44:59.528Z,15.77
2023-05-14T07:47:11.087Z,15.76
2023-05-14T07:49:16.101Z,15.77
2023-05-14T07:51:20.945Z,15.77
2023-05-14T07:53:26.422Z,15.78
2023-05-14T07:55:31.606Z,15.78
2023-05-14T07:57:36.360Z,15.80
2023-05-14T07:59:41.144Z,15.80
2023-05-14T08:01:45.934Z,15.80
2023-05-14T08:03:53.651Z,15.82
2023-05-14T08:05:58.848Z,15.83
2023-05-14T08:08:03.792Z,15.84
2023-05-14T08:10:10.575Z,15.85
2023-05-14T08:12:16.487Z,15.87
2023-05-14T08:14:21.692Z,15.87
2023-05-14T08:16:26.540Z,15.87
2023-05-14T08:18:31.655Z,15.86
2023-05-14T08:20:39.197Z,15.86
2023-05-14T08:22:43.882Z,15.86
2023-05-14T08:24:49.035Z,15.86
2023-05-14T08:26:54.142Z,15.88
2023-05-14T08:28:59.321Z,15.90
2023-05-14T08:31:04.102Z,15.90
2023-05-14T08:33:09.136Z,15.91
2023-05-14T08:35:14.595Z,15.93
2023-05-14T08:37:22.910Z,15.92
2023-05-14T08:39:27.849Z,15.94
2023-05-14T08:41:32.889Z,15.95
2023-05-14T08:43:47.203Z,15.95
2023-05-14T08:45:55.663Z,15.97
2023-05-14T08:48:02.933Z,15.98
2023-05-14T08:50:09.876Z,16.00
2023-05-14T08:52:15.947Z,16.01
2023-05-14T08:54:24.918Z,16.01
2023-05-14T08:56:30.821Z,16.04
2023-05-14T08:58:35.739Z,16.05
2023-05-14T09:00:40.525Z,16.06
2023-05-14T09:02:47.799Z,16.08
2023-05-14T09:04:57.062Z,16.10
2023-05-14T09:07:04.680Z,16.12
2023-05-14T09:09:10.336Z,16.14
2023-05-14T09:11:17.785Z,16.15
2023-05-14T09:13:22.526Z,16.17
2023-05-14T09:15:30.676Z,16.20
2023-05-14T09:17:37.115Z,16.20
2023-05-14T09:19:42.817Z,16.23
2023-05-14T09:21:48.958Z,16.23
2023-05-14T09:23:58.257Z,16.25
2023-05-14T09:26:07.719Z,16.28
2023-05-14T09:28:15.514Z,16.28
2023-05-14T09:30:20.847Z,16.31
2023-05-14T09:32:25.753Z,16.33
2023-05-14T09:34:32.383Z,16.34
2023-05-14T09:36:38.357Z,16.36
2023-05-14T09:38:43.364Z,16.37
2023-05-14T09:40:49.444Z,16.39
2023-05-14T09:42:54.274Z,16.39
2023-05-14T09:45:02.230Z,16.40
2023-05-14T09:47:07.488Z,16.44
2023-05-14T09:49:12.365Z,16.45
2023-05-14T09:51:17.815Z,16.47
2023-05-14T09:53:22.992Z,16.49
2023-05-14T09:55:28.908Z,16.54
2023-05-14T09:57:33.838Z,16.56
2023-05-14T09:59:38.738Z,16.58
2023-05-14T10:01:46.835Z,16.61
2023-05-14T10:03:52.620Z,16.62
2023-05-14T10:05:59.515Z,16.65
2023-05-14T10:08:08.099Z,16.66
2023-05-14T10:10:16.632Z,16.69
2023-05-14T10:12:26.383Z,16.71
2023-05-14T10:14:39.080Z,16.73
2023-05-14T10:16:49.735Z,16.75
2023-05-14T10:18:59.502Z,16.79
2023-05-14T10:21:08.558Z,16.83
2023-05-14T10:23:13.630Z,16.87
2023-05-14T10:25:19.298Z,16.91
2023-05-14T10:27:25.403Z,16.97
2023-05-14T10:29:36.248Z,17.01
2023-05-14T10:31:54.484Z,17.04
2023-05-14T10:33:59.917Z,17.10
2023-05-14T10:36:07.279Z,17.18
2023-05-14T10:38:12.075Z,17.27
2023-05-14T10:40:18.723Z,17.37
2023-05-14T10:42:26.016Z,17.48
2023-05-14T10:44:31.990Z,17.57
2023-05-14T10:46:37.003Z,17.66
2023-05-14T10:48:46.249Z,17.71
2023-05-14T10:50:51.338Z,17.79
2023-05-14T10:52:57.366Z,17.85
2023-05-14T10:55:03.958Z,17.93
2023-05-14T10:57:14.462Z,18.01
2023-05-14T10:59:20.328Z,18.08
2023-05-14T11:01:27.224Z,18.17
2023-05-14T11:03:33.522Z,18.28
2023-05-14T11:05:43.823Z,18.38
2023-05-14T11:07:50.782Z,18.48
2023-05-14T11:09:57.052Z,18.60
2023-05-14T11:12:01.878Z,18.69
2023-05-14T11:14:08.468Z,18.77
2023-05-14T11:16:23.411Z,18.81
2023-05-14T11:18:33.721Z,18.86
2023-05-14T11:20:41.407Z,18.88
2023-05-14T11:22:47.421Z,18.87
2023-05-14T11:24:53.054Z,18.87
2023-05-14T11:26:59.054Z,18.84
2023-05-14T11:29:04.217Z,18.82
2023-05-14T11:31:09.076Z,18.78
2023-05-14T11:33:14.174Z,18.74
2023-05-14T11:35:19.664Z,18.71
2023-05-14T11:37:27.188Z,18.66
2023-05-14T11:39:32.160Z,18.61
2023-05-14T11:41:37.051Z,18.57
2023-05-14T11:43:41.902Z,18.52
2023-05-14T11:45:52.105Z,18.47
2023-05-14T11:47:57.227Z,18.41
2023-05-14T11:50:03.000Z,18.36
2023-05-14T11:52:10.390Z,18.30
2023-05-14T11:54:19.707Z,18.23
2023-05-14T11:56:24.783Z,18.20
2023-05-14T11:58:29.633Z,18.14
2023-05-14T12:00:34.538Z,18.11
2023-05-14T12:02:40.356Z,18.08
2023-05-14T12:04:46.672Z,18.05
2023-05-14T12:06:52.189Z,18.04
2023-05-14T12:09:00.968Z,18.03
2023-05-14T12:11:08.917Z,18.01
2023-05-14T12:13:13.858Z,18.02
2023-05-14T12:15:21.967Z,18.01
2023-05-14T12:17:27.093Z,18.03
2023-05-14T12:19:33.375Z,18.06
2023-05-14T12:21:38.308Z,18.10
2023-05-14T12:23:43.068Z,18.13
2023-05-14T12:25:54.722Z,18.16
2023-05-14T12:28:02.151Z,18.21
2023-05-14T12:32:18.145Z,18.30
2023-05-14T12:34:22.955Z,18.35
2023-05-14T12:36:28.074Z,18.41
2023-05-14T12:38:35.094Z,18.47
2023-05-14T12:40:39.923Z,18.54
2023-05-14T12:42:44.981Z,18.59
2023-05-14T12:44:52.659Z,18.65
2023-05-14T12:46:58.561Z,18.70
2023-05-14T12:49:04.043Z,18.76
2023-05-14T12:51:09.208Z,18.80
2023-05-14T12:53:16.522Z,18.85
2023-05-14T12:55:21.449Z,18.90
2023-05-14T12:57:27.158Z,18.94
2023-05-14T12:59:32.031Z,18.99
2023-05-14T13:01:40.245Z,19.02
2023-05-14T13:03:45.180Z,19.06
2023-05-14T13:05:50.345Z,19.09
2023-05-14T13:07:56.080Z,19.12
2023-05-14T13:10:01.328Z,19.16
2023-05-14T13:12:06.557Z,19.19
2023-05-14T13:14:11.400Z,19.23
2023-05-14T13:16:17.269Z,19.26
2023-05-14T13:18:26.700Z,19.29
2023-05-14T13:20:32.477Z,19.32
2023-05-14T13:22:39.769Z,19.33
2023-05-14T13:24:44.842Z,19.36
2023-05-14T13:26:49.614Z,19.38
2023-05-14T13:28:54.841Z,19.40
2023-05-14T13:31:08.384Z,19.41
2023-05-14T13:33:13.448Z,19.43
2023-05-14T13:35:21.148Z,19.45
2023-05-14T13:37:27.107Z,19.47
2023-05-14T13:39:31.846Z,19.49
2023-05-14T13:41:38.103Z,19.51
2023-05-14T13:43:43.139Z,19.52
2023-05-14T13:45:48.190Z,19.52
2023-05-14T13:47:53.086Z,19.52
2023-05-14T13:49:59.502Z,19.52
2023-05-14T13:52:07.926Z,19.51
2023-05-14T13:54:13.126Z,19.53
2023-05-14T13:56:18.144Z,19.53
2023-05-14T13:58:23.190Z,19.54
2023-05-14T14:00:28.338Z,19.56
2023-05-14T14:02:34.246Z,19.57
2023-05-14T14:04:39.312Z,19.57
2023-05-14T14:06:44.184Z,19.57
2023-05-14T14:08:51.680Z,19.58
2023-05-14T14:10:57.378Z,19.60
2023-05-14T14:13:02.254Z,19.59
2023-05-14T14:15:08.788Z,19.59
2023-05-14T14:17:13.623Z,19.58
2023-05-14T14:19:18.786Z,19.59
2023-05-14T14:21:24.716Z,19.59
2023-05-14T14:23:29.620Z,19.60
2023-05-14T14:25:37.096Z,19.60
2023-05-14T14:27:42.332Z,19.61
2023-05-14T14:29:47.161Z,19.62
2023-05-14T14:31:52.111Z,19.64
2023-05-14T14:33:57.353Z,19.65
2023-05-14T14:36:02.275Z,19.62
2023-05-14T14:38:07.159Z,19.57
2023-05-14T14:40:12.818Z,19.52
2023-05-14T14:42:20.484Z,19.45
2023-05-14T14:44:25.803Z,19.39
2023-05-14T14:46:30.945Z,19.32
2023-05-14T14:48:37.845Z,19.23
2023-05-14T14:50:42.811Z,19.15
2023-05-14T14:52:48.282Z,19.04
2023-05-14T14:54:53.336Z,18.92
2023-05-14T14:56:58.173Z,18.81
2023-05-14T14:59:05.701Z,18.67
2023-05-14T15:01:10.792Z,18.59
2023-05-14T15:03:16.084Z,18.48
2023-05-14T15:05:21.655Z,18.38
2023-05-14T15:07:26.456Z,18.30
2023-05-14T15:09:31.391Z,18.21
2023-05-14T15:11:37.507Z,18.12
2023-05-14T15:13:43.264Z,18.06
2023-05-14T15:15:50.695Z,17.95
2023-05-14T15:17:55.610Z,17.92
2023-05-14T15:20:00.347Z,17.85
2023-05-14T15:22:05.297Z,17.77
2023-05-14T15:24:13.953Z,17.69
2023-05-14T15:26:18.981Z,17.62
2023-05-14T15:28:24.279Z,17.57
2023-05-14T15:30:29.044Z,17.51
2023-05-14T15:32:37.079Z,17.47
2023-05-14T15:34:42.508Z,17.43
2023-05-14T15:36:47.415Z,17.39
2023-05-14T15:38:52.486Z,17.34
2023-05-14T15:40:57.225Z,17.33
2023-05-14T15:43:02.029Z,17.28
2023-05-14T15:45:07.858Z,17.23
2023-05-14T15:47:12.870Z,17.20
2023-05-14T15:49:20.762Z,17.14
2023-05-14T15:51:25.974Z,17.10
2023-05-14T15:53:30.890Z,17.05
2023-05-14T15:55:36.047Z,17.02
2023-05-14T15:57:40.950Z,17.00
2023-05-14T15:59:46.223Z,16.98
2023-05-14T16:01:51.133Z,16.97
2023-05-14T16:03:56.227Z,16.95
2023-05-14T16:06:04.245Z,16.95
2023-05-14T16:08:09.881Z,16.92
2023-05-14T16:10:14.729Z,16.92
2023-05-14T16:12:19.660Z,16.93
2023-05-14T16:14:25.079Z,16.92
2023-05-14T16:16:30.677Z,16.91
2023-05-14T16:18:35.766Z,16.90
2023-05-14T16:20:40.674Z,16.91
2023-05-14T16:22:47.976Z,16.91
2023-05-14T16:24:52.757Z,16.93
2023-05-14T16:26:57.545Z,16.93
2023-05-14T16:29:02.543Z,16.95
2023-05-14T16:31:07.754Z,16.98
2023-05-14T16:33:12.647Z,16.99
2023-05-14T16:35:18.094Z,17.00
2023-05-14T16:37:22.974Z,16.99
2023-05-14T16:39:31.366Z,17.00
2023-05-14T16:41:36.481Z,17.02
2023-05-14T16:43:41.197Z,17.02
2023-05-14T16:45:46.115Z,17.02
2023-05-14T16:47:51.041Z,17.04
2023-05-14T16:49:56.029Z,17.04
2023-05-14T16:52:01.008Z,17.05
2023-05-14T16:54:05.994Z,17.04
2023-05-14T16:56:13.821Z,17.04
2023-05-14T16:58:18.625Z,17.05
2023-05-14T17:00:23.399Z,17.04
2023-05-14T17:02:28.366Z,17.03
2023-05-14T17:04:33.615Z,17.05
2023-05-14T17:06:38.829Z,17.03
2023-05-14T17:08:43.641Z,17.03
2023-05-14T17:10:48.505Z,17.03
2023-05-14T17:12:56.029Z,17.02
2023-05-14T17:15:03.708Z,17.03
2023-05-14T17:17:10.083Z,17.03
2023-05-14T17:19:14.957Z,17.04
2023-05-14T17:21:19.720Z,17.03
2023-05-14T17:23:24.556Z,17.04
2023-05-14T17:25:29.388Z,17.04
2023-05-14T17:27:34.634Z,17.05
2023-05-14T17:29:42.046Z,17.04
2023-05-14T17:31:48.365Z,17.05
2023-05-14T17:33:53.238Z,17.05
2023-05-14T17:35:58.088Z,17.05
2023-05-14T17:38:02.804Z,17.05
2023-05-14T17:40:11.740Z,17.05
2023-05-14T17:42:16.928Z,17.04
2023-05-14T17:44:21.945Z,17.03
2023-05-14T17:46:29.690Z,17.03
2023-05-14T17:48:34.473Z,17.03
2023-05-14T17:50:39.871Z,17.03
2023-05-14T17:52:46.280Z,17.02
2023-05-14T17:54:51.529Z,17.04
2023-05-14T17:56:56.555Z,17.04
2023-05-14T17:59:01.326Z,17.04
2023-05-14T18:01:06.296Z,17.05
2023-05-14T18:03:14.430Z,17.06
2023-05-14T18:05:20.699Z,17.06
2023-05-14T18:07:25.867Z,17.06
2023-05-14T18:09:30.702Z,17.07
2023-05-14T18:11:35.804Z,17.06
2023-05-14T18:13:40.679Z,17.05
2023-05-14T18:15:45.554Z,17.04
2023-05-14T18:17:50.683Z,17.05
2023-05-14T18:19:59.200Z,17.03
2023-05-14T18:22:04.284Z,17.02
2023-05-14T18:24:10.049Z,17.00
2023-05-14T18:26:14.915Z,17.00
2023-05-14T18:28:24.004Z,16.98
2023-05-14T18:30:29.062Z,16.96
2023-05-14T18:32:34.030Z,16.95
2023-05-14T18:34:38.914Z,16.92
2023-05-14T18:36:46.663Z,16.89
2023-05-14T18:38:51.500Z,16.87
2023-05-14T18:40:56.324Z,16.85
2023-05-14T18:43:01.147Z,16.83
2023-05-14T18:45:06.179Z,16.81
2023-05-14T18:47:11.258Z,16.79
2023-05-14T18:49:16.204Z,16.77
2023-05-14T18:51:21.019Z,16.75
2023-05-14T18:53:29.653Z,16.72
2023-05-14T18:55:35.364Z,16.72
2023-05-14T18:57:40.539Z,16.70
2023-05-14T18:59:45.553Z,16.69
2023-05-14T19:01:50.308Z,16.67
2023-05-14T19:03:56.460Z,16.66
2023-05-14T19:06:01.388Z,16.64
2023-05-14T19:08:06.425Z,16.63
2023-05-14T19:10:14.787Z,16.61
2023-05-14T19:12:19.526Z,16.61
2023-05-14T19:14:24.311Z,16.58
2023-05-14T19:16:29.368Z,16.58
2023-05-14T19:18:34.282Z,16.56
2023-05-14T19:20:39.401Z,16.55
2023-05-14T19:22:44.500Z,16.54
2023-05-14T19:26:57.613Z,16.52
2023-05-14T19:29:02.439Z,16.54
2023-05-14T19:31:07.325Z,16.52
2023-05-14T19:33:12.317Z,16.52
2023-05-14T19:35:17.406Z,16.51
2023-05-14T19:37:22.417Z,16.51
2023-05-14T19:39:27.377Z,16.51
2023-05-14T19:41:32.612Z,16.53
2023-05-14T19:43:39.930Z,16.53
2023-05-14T19:45:46.060Z,16.55
2023-05-14T19:47:51.042Z,16.56
2023-05-14T19:49:56.187Z,16.56
2023-05-14T19:52:01.128Z,16.56
2023-05-14T19:54:06.950Z,16.57
2023-05-14T19:56:11.723Z,16.56
2023-05-14T19:58:16.513Z,16.57
2023-05-14T20:00:24.377Z,16.55
2023-05-14T20:02:29.585Z,16.55
2023-05-14T20:04:35.063Z,16.55
2023-05-14T20:06:40.466Z,16.53
2023-05-14T20:08:45.403Z,16.52
2023-05-14T20:10:51.098Z,16.51
2023-05-14T20:12:55.835Z,16.50
2023-05-14T20:15:00.686Z,16.48
2023-05-14T20:17:08.813Z,16.47
2023-05-14T20:19:13.960Z,16.46
2023-05-14T20:21:18.821Z,16.45
2023-05-14T20:23:23.743Z,16.44
2023-05-14T20:25:29.261Z,16.43
2023-05-14T20:27:34.533Z,16.43
2023-05-14T20:29:39.387Z,16.43
2023-05-14T20:31:44.400Z,16.42
2023-05-14T20:33:51.850Z,16.40
2023-05-14T20:35:56.691Z,16.40
2023-05-14T20:38:02.402Z,16.38
2023-05-14T20:40:10.641Z,16.37
2023-05-14T20:42:15.705Z,16.37
2023-05-14T20:44:20.816Z,16.36
2023-05-14T20:46:25.883Z,16.35
2023-05-14T20:48:30.708Z,16.34
2023-05-14T20:50:38.748Z,16.31
2023-05-14T20:52:43.532Z,16.32
2023-05-14T20:54:49.231Z,16.32
2023-05-14T20:56:54.078Z,16.32
2023-05-14T20:58:58.867Z,16.30
2023-05-14T21:01:04.008Z,16.29
2023-05-14T21:03:08.915Z,16.30
2023-05-14T21:05:14.063Z,16.30
2023-05-14T21:07:21.536Z,16.29
2023-05-14T21:09:27.440Z,16.30
2023-05-14T21:11:32.163Z,16.30
2023-05-14T21:13:37.180Z,16.29
2023-05-14T21:15:42.111Z,16.29
2023-05-14T21:17:47.073Z,16.28
2023-05-14T21:19:51.886Z,16.27
2023-05-14T21:21:56.653Z,16.26
2023-05-14T21:24:04.042Z,16.25
2023-05-14T21:26:08.930Z,16.25
2023-05-14T21:28:13.851Z,16.26
2023-05-14T21:30:19.097Z,16.27
2023-05-14T21:32:24.404Z,16.27
2023-05-14T21:34:31.252Z,16.27
2023-05-14T21:36:36.876Z,16.27
2023-05-14T21:38:41.863Z,16.27
2023-05-14T21:40:49.320Z,16.26
2023-05-14T21:42:54.316Z,16.28
2023-05-14T21:44:59.088Z,16.27
2023-05-14T21:47:04.301Z,16.28
2023-05-14T21:49:09.074Z,16.27
2023-05-14T21:51:14.203Z,16.27
2023-05-14T21:53:18.982Z,16.28
2023-05-14T21:55:24.394Z,16.28
2023-05-14T21:57:34.660Z,16.27
2023-05-14T21:59:40.192Z,16.28
2023-05-14T22:02:05.381Z,16.26
2023-05-14T22:04:10.770Z,16.22
2023-05-14T22:06:15.681Z,16.23
2023-05-14T22:08:20.558Z,16.22
2023-05-14T22:10:25.541Z,16.21
2023-05-14T22:12:33.030Z,16.18
2023-05-14T22:14:37.933Z,16.16
2023-05-14T22:16:42.883Z,16.15
2023-05-14T22:18:48.282Z,16.14
2023-05-14T22:20:53.336Z,16.12
2023-05-14T22:22:58.228Z,16.12
2023-05-14T22:25:03.008Z,16.11
2023-05-14T22:27:08.410Z,16.10
2023-05-14T22:29:15.963Z,16.10
2023-05-14T22:31:21.198Z,16.09
2023-05-14T22:33:25.950Z,16.08
2023-05-14T22:35:30.746Z,16.07
2023-05-14T22:37:35.591Z,16.08
2023-05-14T22:39:40.526Z,16.07
2023-05-14T22:41:46.091Z,16.06
2023-05-14T22:43:51.286Z,16.08
2023-05-14T22:45:59.210Z,16.05
2023-05-14T22:48:04.044Z,16.07
2023-05-14T22:50:11.787Z,16.08
2023-05-14T22:52:16.568Z,16.08
2023-05-14T22:54:21.449Z,16.08
2023-05-14T22:56:26.584Z,16.08
2023-05-14T22:58:31.471Z,16.08
2023-05-14T23:00:36.228Z,16.09
2023-05-14T23:02:43.707Z,16.10
2023-05-14T23:04:48.797Z,16.10
2023-05-14T23:06:53.849Z,16.11
2023-05-14T23:08:58.778Z,16.12
2023-05-14T23:11:03.823Z,16.13
2023-05-14T23:13:08.674Z,16.14
2023-05-14T23:15:13.995Z,16.14
2023-05-14T23:17:20.119Z,16.14
2023-05-14T23:19:27.742Z,16.14
2023-05-14T23:21:32.546Z,16.14
2023-05-14T23:23:37.952Z,16.14
2023-05-14T23:25:42.772Z,16.14
2023-05-14T23:27:48.220Z,16.14
2023-05-14T23:29:53.201Z,16.15
2023-05-14T23:31:58.032Z,16.14
2023-05-14T23:34:03.185Z,16.12
2023-05-14T23:36:11.717Z,16.13
2023-05-14T23:38:16.591Z,16.13
2023-05-14T23:40:21.635Z,16.13
2023-05-14T23:42:26.484Z,16.12
2023-05-14T23:44:31.552Z,16.11
2023-05-14T23:46:36.618Z,16.10
2023-05-14T23:48:41.366Z,16.10
2023-05-14T23:50:46.622Z,16.10
2023-05-14T23:52:54.222Z,16.10
2023-05-14T23:54:59.105Z,16.12
2023-05-14T23:57:06.014Z,16.12
2023-05-14T23:59:11.883Z,16.12
